EWG15MG EDDL-LQMO
Flight info
| Callsign | EWG15MG |
|---|---|
| Flight time | 1h 43m |
| Altitude | 37000 |
| Route | DODEN7Z/05R DODEN Y853 BOMBI T104 XERUM M867 RADIZ DCT EPODO DCT RASTU DCT VRANA |
| Aircraft | A320/M-SDE3FGHIRWY/LB1 |
Departure
| Time | 2026-05-07 18:52 |
|---|---|
| Airport | Düsseldorf Airport (EDDL) |
Arrival
| Time | 2026-05-07 20:36 |
|---|---|
| Airport | Mostar International Airport (LQMO) |
| Time | Latitude | Longitude | Altitude | Speed | Heading |
|---|---|---|---|---|---|
| 2026-05-07 18:15 | 51.27942 | 6.76174 | 125 ft | 0 kts | 91° |
| 2026-05-07 18:43 | 51.27942 | 6.76157 | 130 ft | 3 kts | 89° |
| 2026-05-07 18:43 | 51.27942 | 6.76124 | 129 ft | 3 kts | 84° |
| 2026-05-07 18:43 | 51.27939 | 6.76093 | 129 ft | 3 kts | 74° |
| 2026-05-07 18:44 | 51.27932 | 6.76063 | 127 ft | 3 kts | 50° |
| 2026-05-07 18:44 | 51.27920 | 6.76047 | 128 ft | 1 kts | 4° |
| 2026-05-07 18:44 | 51.27918 | 6.76047 | 128 ft | 0 kts | 1° |
| 2026-05-07 18:48 | 51.27935 | 6.76047 | 129 ft | 3 kts | 1° |
| 2026-05-07 18:48 | 51.27959 | 6.76048 | 130 ft | 4 kts | 1° |
| 2026-05-07 18:48 | 51.27983 | 6.76048 | 130 ft | 3 kts | 359° |
| 2026-05-07 18:48 | 51.28023 | 6.76047 | 125 ft | 6 kts | 359° |
| 2026-05-07 18:49 | 51.28076 | 6.76045 | 130 ft | 10 kts | 350° |
| 2026-05-07 18:49 | 51.28103 | 6.75970 | 128 ft | 9 kts | 254° |
| 2026-05-07 18:49 | 51.28071 | 6.75898 | 127 ft | 8 kts | 232° |
| 2026-05-07 18:49 | 51.28035 | 6.75823 | 128 ft | 13 kts | 232° |
| 2026-05-07 18:50 | 51.27980 | 6.75708 | 124 ft | 12 kts | 233° |
| 2026-05-07 18:50 | 51.27942 | 6.75594 | 125 ft | 11 kts | 270° |
| 2026-05-07 18:50 | 51.27983 | 6.75530 | 127 ft | 8 kts | 338° |
| 2026-05-07 18:50 | 51.28042 | 6.75491 | 124 ft | 10 kts | 333° |
| 2026-05-07 18:51 | 51.28091 | 6.75478 | 127 ft | 5 kts | 37° |
| 2026-05-07 18:51 | 51.28108 | 6.75508 | 122 ft | 2 kts | 52° |
| 2026-05-07 18:51 | 51.28137 | 6.75567 | 125 ft | 24 kts | 53° |
| 2026-05-07 18:51 | 51.28401 | 6.76122 | 128 ft | 98 kts | 53° |
| 2026-05-07 18:52 | 51.28934 | 6.77241 | 135 ft | 153 kts | 53° |
| 2026-05-07 18:52 | 51.29609 | 6.78636 | 691 ft | 159 kts | 53° |
| 2026-05-07 18:52 | 51.30273 | 6.80050 | 1450 ft | 162 kts | 53° |
| 2026-05-07 18:52 | 51.30997 | 6.81581 | 1827 ft | 183 kts | 53° |
| 2026-05-07 18:53 | 51.31813 | 6.83307 | 2132 ft | 207 kts | 53° |
| 2026-05-07 18:53 | 51.32735 | 6.85261 | 2552 ft | 232 kts | 53° |
| 2026-05-07 18:53 | 51.33748 | 6.87430 | 3138 ft | 250 kts | 54° |
| 2026-05-07 18:53 | 51.34762 | 6.89740 | 4034 ft | 257 kts | 59° |
| 2026-05-07 18:54 | 51.35275 | 6.92488 | 4938 ft | 265 kts | 88° |
| 2026-05-07 18:54 | 51.35056 | 6.95442 | 5840 ft | 270 kts | 98° |
| 2026-05-07 18:54 | 51.34749 | 6.98432 | 6760 ft | 274 kts | 98° |
| 2026-05-07 18:54 | 51.34314 | 7.01427 | 7590 ft | 280 kts | 112° |
| 2026-05-07 18:55 | 51.33250 | 7.04060 | 8428 ft | 286 kts | 129° |
| 2026-05-07 18:55 | 51.31975 | 7.06532 | 9318 ft | 289 kts | 130° |
| 2026-05-07 18:55 | 51.30690 | 7.08988 | 10158 ft | 293 kts | 130° |
| 2026-05-07 18:55 | 51.29323 | 7.11596 | 10564 ft | 314 kts | 130° |
| 2026-05-07 18:56 | 51.27885 | 7.14341 | 10835 ft | 337 kts | 130° |
| 2026-05-07 18:56 | 51.26335 | 7.17306 | 11408 ft | 348 kts | 130° |
| 2026-05-07 18:56 | 51.24774 | 7.20299 | 12141 ft | 352 kts | 130° |
| 2026-05-07 18:56 | 51.23219 | 7.23281 | 12882 ft | 356 kts | 130° |
| 2026-05-07 18:57 | 51.21625 | 7.26334 | 13624 ft | 360 kts | 130° |
| 2026-05-07 18:57 | 51.20006 | 7.29429 | 14311 ft | 365 kts | 130° |
| 2026-05-07 18:57 | 51.18377 | 7.32543 | 14965 ft | 368 kts | 130° |
| 2026-05-07 18:57 | 51.16727 | 7.35698 | 15627 ft | 372 kts | 131° |
| 2026-05-07 18:58 | 51.15042 | 7.38909 | 16279 ft | 376 kts | 131° |
| 2026-05-07 18:58 | 51.13371 | 7.42087 | 16919 ft | 380 kts | 131° |
| 2026-05-07 18:58 | 51.11669 | 7.45320 | 17549 ft | 383 kts | 131° |
| 2026-05-07 18:58 | 51.09947 | 7.48591 | 18172 ft | 387 kts | 131° |
| 2026-05-07 18:59 | 51.08209 | 7.51883 | 18735 ft | 390 kts | 131° |
| 2026-05-07 18:59 | 51.06451 | 7.55208 | 19277 ft | 394 kts | 131° |
| 2026-05-07 18:59 | 51.04683 | 7.58549 | 19808 ft | 397 kts | 131° |
| 2026-05-07 18:59 | 51.02900 | 7.61917 | 20350 ft | 399 kts | 131° |
| 2026-05-07 19:00 | 51.01094 | 7.65322 | 20894 ft | 402 kts | 131° |
| 2026-05-07 19:00 | 50.99286 | 7.68723 | 21418 ft | 405 kts | 131° |
| 2026-05-07 19:00 | 50.97447 | 7.72045 | 21913 ft | 407 kts | 136° |
| 2026-05-07 19:00 | 50.95286 | 7.74968 | 22416 ft | 408 kts | 146° |
| 2026-05-07 19:01 | 50.92887 | 7.77386 | 22924 ft | 410 kts | 150° |
| 2026-05-07 19:01 | 50.90448 | 7.79769 | 23421 ft | 413 kts | 150° |
| 2026-05-07 19:01 | 50.87994 | 7.82177 | 23867 ft | 416 kts | 150° |
| 2026-05-07 19:01 | 50.85532 | 7.84598 | 24274 ft | 418 kts | 150° |
| 2026-05-07 19:02 | 50.83049 | 7.87035 | 24670 ft | 421 kts | 150° |
| 2026-05-07 19:02 | 50.80555 | 7.89484 | 25058 ft | 424 kts | 150° |
| 2026-05-07 19:02 | 50.78041 | 7.91949 | 25448 ft | 426 kts | 150° |
| 2026-05-07 19:02 | 50.75486 | 7.94451 | 25833 ft | 429 kts | 149° |
| 2026-05-07 19:03 | 50.72941 | 7.96943 | 26206 ft | 431 kts | 149° |
| 2026-05-07 19:03 | 50.70417 | 7.99409 | 26568 ft | 434 kts | 149° |
| 2026-05-07 19:03 | 50.67807 | 8.01951 | 26942 ft | 436 kts | 150° |
| 2026-05-07 19:03 | 50.65249 | 8.04434 | 27307 ft | 439 kts | 150° |
| 2026-05-07 19:04 | 50.62641 | 8.06964 | 27671 ft | 442 kts | 149° |
| 2026-05-07 19:04 | 50.60057 | 8.09598 | 28026 ft | 445 kts | 144° |
| 2026-05-07 19:04 | 50.57651 | 8.12694 | 28371 ft | 448 kts | 141° |
| 2026-05-07 19:04 | 50.55263 | 8.15847 | 28710 ft | 450 kts | 141° |
| 2026-05-07 19:05 | 50.52848 | 8.19024 | 29036 ft | 453 kts | 141° |
| 2026-05-07 19:05 | 50.50424 | 8.22207 | 29350 ft | 455 kts | 141° |
| 2026-05-07 19:05 | 50.47984 | 8.25395 | 29659 ft | 457 kts | 141° |
| 2026-05-07 19:05 | 50.45528 | 8.28592 | 29959 ft | 460 kts | 141° |
| 2026-05-07 19:06 | 50.43059 | 8.31802 | 30244 ft | 462 kts | 141° |
| 2026-05-07 19:06 | 50.38095 | 8.38259 | 30844 ft | 464 kts | 141° |
| 2026-05-07 19:06 | 50.35619 | 8.41476 | 31189 ft | 463 kts | 141° |
| 2026-05-07 19:07 | 50.33132 | 8.44705 | 31545 ft | 463 kts | 141° |
| 2026-05-07 19:07 | 50.30651 | 8.47919 | 31911 ft | 463 kts | 141° |
| 2026-05-07 19:07 | 50.28178 | 8.51120 | 32253 ft | 462 kts | 141° |
| 2026-05-07 19:07 | 50.25691 | 8.54333 | 32599 ft | 462 kts | 141° |
| 2026-05-07 19:08 | 50.23208 | 8.57530 | 32943 ft | 462 kts | 141° |
| 2026-05-07 19:08 | 50.20737 | 8.60706 | 33286 ft | 462 kts | 141° |
| 2026-05-07 19:08 | 50.18252 | 8.63894 | 33641 ft | 461 kts | 141° |
| 2026-05-07 19:08 | 50.15771 | 8.67078 | 33988 ft | 461 kts | 141° |
| 2026-05-07 19:09 | 50.13298 | 8.70250 | 34288 ft | 461 kts | 141° |
| 2026-05-07 19:09 | 50.10819 | 8.73430 | 34574 ft | 461 kts | 142° |
| 2026-05-07 19:09 | 50.08343 | 8.76598 | 34851 ft | 461 kts | 142° |
| 2026-05-07 19:09 | 50.05863 | 8.79766 | 35039 ft | 461 kts | 142° |
| 2026-05-07 19:10 | 50.01019 | 8.86320 | 35079 ft | 462 kts | 139° |
| 2026-05-07 19:10 | 49.96318 | 8.93124 | 35076 ft | 462 kts | 138° |
| 2026-05-07 19:11 | 49.91616 | 8.99913 | 35073 ft | 462 kts | 139° |
| 2026-05-07 19:11 | 49.86978 | 9.06824 | 35109 ft | 464 kts | 135° |
| 2026-05-07 19:12 | 49.84760 | 9.10453 | 35391 ft | 464 kts | 134° |
| 2026-05-07 19:12 | 49.82580 | 9.14132 | 35661 ft | 464 kts | 134° |
| 2026-05-07 19:12 | 49.80409 | 9.17821 | 35922 ft | 463 kts | 134° |
| 2026-05-07 19:12 | 49.78227 | 9.21498 | 36173 ft | 463 kts | 134° |
| 2026-05-07 19:13 | 49.76033 | 9.25139 | 36401 ft | 463 kts | 135° |
| 2026-05-07 19:13 | 49.73818 | 9.28765 | 36640 ft | 463 kts | 135° |
| 2026-05-07 19:13 | 49.71597 | 9.32369 | 36872 ft | 463 kts | 135° |
| 2026-05-07 19:13 | 49.69367 | 9.35969 | 37039 ft | 464 kts | 135° |
| 2026-05-07 19:14 | 49.64900 | 9.43163 | 37070 ft | 464 kts | 136° |
| 2026-05-07 19:14 | 49.60439 | 9.50371 | 37075 ft | 464 kts | 135° |
| 2026-05-07 19:15 | 49.55984 | 9.57569 | 37069 ft | 464 kts | 136° |
| 2026-05-07 19:15 | 49.51511 | 9.64748 | 37065 ft | 465 kts | 136° |
| 2026-05-07 19:16 | 49.47061 | 9.71867 | 37060 ft | 465 kts | 136° |
| 2026-05-07 19:16 | 49.42575 | 9.79041 | 37057 ft | 465 kts | 136° |
| 2026-05-07 19:17 | 49.38086 | 9.86199 | 37057 ft | 465 kts | 136° |
| 2026-05-07 19:17 | 49.33589 | 9.93345 | 37058 ft | 466 kts | 136° |
| 2026-05-07 19:18 | 49.29083 | 10.00485 | 37059 ft | 466 kts | 136° |
| 2026-05-07 19:18 | 49.24576 | 10.07629 | 37064 ft | 466 kts | 136° |
| 2026-05-07 19:19 | 49.20063 | 10.14756 | 37075 ft | 466 kts | 136° |
| 2026-05-07 19:19 | 49.15561 | 10.21891 | 37092 ft | 467 kts | 136° |
| 2026-05-07 19:20 | 49.11062 | 10.29033 | 37097 ft | 467 kts | 136° |
| 2026-05-07 19:20 | 49.06551 | 10.36176 | 37098 ft | 467 kts | 136° |
| 2026-05-07 19:21 | 49.02037 | 10.43296 | 37106 ft | 467 kts | 136° |
| 2026-05-07 19:21 | 48.97515 | 10.50404 | 37112 ft | 467 kts | 136° |
| 2026-05-07 19:22 | 48.92987 | 10.57496 | 37114 ft | 467 kts | 136° |
| 2026-05-07 19:22 | 48.88448 | 10.64587 | 37112 ft | 468 kts | 136° |
| 2026-05-07 19:23 | 48.83912 | 10.71669 | 37109 ft | 468 kts | 136° |
| 2026-05-07 19:23 | 48.79394 | 10.78690 | 37094 ft | 468 kts | 137° |
| 2026-05-07 19:24 | 48.74808 | 10.85791 | 37077 ft | 468 kts | 137° |
| 2026-05-07 19:24 | 48.70280 | 10.92788 | 37073 ft | 468 kts | 137° |
| 2026-05-07 19:25 | 48.65712 | 10.99834 | 37065 ft | 468 kts | 137° |
| 2026-05-07 19:25 | 48.61146 | 11.06862 | 37060 ft | 469 kts | 137° |
| 2026-05-07 19:26 | 48.56574 | 11.13881 | 37063 ft | 469 kts | 137° |
| 2026-05-07 19:26 | 48.51994 | 11.20888 | 37067 ft | 469 kts | 137° |
| 2026-05-07 19:27 | 48.47405 | 11.27875 | 37069 ft | 469 kts | 137° |
| 2026-05-07 19:27 | 48.42815 | 11.34852 | 37070 ft | 469 kts | 137° |
| 2026-05-07 19:28 | 48.38217 | 11.41826 | 37082 ft | 469 kts | 137° |
| 2026-05-07 19:28 | 48.33606 | 11.48801 | 37081 ft | 469 kts | 137° |
| 2026-05-07 19:29 | 48.29000 | 11.55749 | 37081 ft | 470 kts | 137° |
| 2026-05-07 19:29 | 48.24384 | 11.62691 | 37082 ft | 470 kts | 138° |
| 2026-05-07 19:30 | 48.20551 | 11.68441 | 37081 ft | 470 kts | 138° |
| 2026-05-07 19:30 | 48.15924 | 11.75384 | 37080 ft | 470 kts | 138° |
| 2026-05-07 19:31 | 48.11297 | 11.82298 | 37079 ft | 470 kts | 138° |
| 2026-05-07 19:31 | 48.06662 | 11.89196 | 37074 ft | 470 kts | 138° |
| 2026-05-07 19:32 | 48.02027 | 11.96087 | 37073 ft | 470 kts | 138° |
| 2026-05-07 19:32 | 47.97377 | 12.02966 | 37072 ft | 470 kts | 138° |
| 2026-05-07 19:33 | 47.92723 | 12.09837 | 37075 ft | 470 kts | 138° |
| 2026-05-07 19:33 | 47.88076 | 12.16697 | 37072 ft | 471 kts | 139° |
| 2026-05-07 19:34 | 47.83419 | 12.23548 | 37075 ft | 471 kts | 139° |
| 2026-05-07 19:34 | 47.78744 | 12.30376 | 37075 ft | 471 kts | 139° |
| 2026-05-07 19:35 | 47.74076 | 12.37197 | 37078 ft | 471 kts | 139° |
| 2026-05-07 19:35 | 47.69409 | 12.44005 | 37078 ft | 471 kts | 139° |
| 2026-05-07 19:36 | 47.64717 | 12.50821 | 37079 ft | 471 kts | 139° |
| 2026-05-07 19:36 | 47.59764 | 12.57037 | 37079 ft | 467 kts | 147° |
| 2026-05-07 19:37 | 47.54560 | 12.62799 | 37075 ft | 467 kts | 147° |
| 2026-05-07 19:37 | 47.49357 | 12.68578 | 37078 ft | 467 kts | 147° |
| 2026-05-07 19:38 | 47.44152 | 12.74341 | 37076 ft | 468 kts | 147° |
| 2026-05-07 19:38 | 47.38939 | 12.80083 | 37074 ft | 468 kts | 147° |
| 2026-05-07 19:39 | 47.33718 | 12.85814 | 37086 ft | 468 kts | 147° |
| 2026-05-07 19:39 | 47.28492 | 12.91548 | 37084 ft | 468 kts | 148° |
| 2026-05-07 19:40 | 47.23268 | 12.97250 | 37074 ft | 467 kts | 148° |
| 2026-05-07 19:40 | 47.18039 | 13.02943 | 37070 ft | 468 kts | 148° |
| 2026-05-07 19:41 | 47.12844 | 13.08597 | 37071 ft | 468 kts | 148° |
| 2026-05-07 19:41 | 47.07612 | 13.14269 | 37070 ft | 468 kts | 148° |
| 2026-05-07 19:42 | 47.02375 | 13.19926 | 37072 ft | 468 kts | 148° |
| 2026-05-07 19:42 | 46.97135 | 13.25590 | 37073 ft | 468 kts | 148° |
| 2026-05-07 19:43 | 46.91898 | 13.31244 | 37069 ft | 468 kts | 148° |
| 2026-05-07 19:43 | 46.86653 | 13.36883 | 37062 ft | 468 kts | 148° |
| 2026-05-07 19:44 | 46.81399 | 13.42501 | 37056 ft | 468 kts | 149° |
| 2026-05-07 19:44 | 46.76143 | 13.48111 | 37058 ft | 468 kts | 149° |
| 2026-05-07 19:45 | 46.70894 | 13.53729 | 37057 ft | 468 kts | 149° |
| 2026-05-07 19:45 | 46.65628 | 13.59339 | 37055 ft | 468 kts | 149° |
| 2026-05-07 19:46 | 46.60360 | 13.64918 | 37057 ft | 468 kts | 149° |
| 2026-05-07 19:46 | 46.55093 | 13.70476 | 37057 ft | 468 kts | 149° |
| 2026-05-07 19:47 | 46.49821 | 13.76045 | 37063 ft | 468 kts | 149° |
| 2026-05-07 19:47 | 46.44549 | 13.81601 | 37063 ft | 469 kts | 149° |
| 2026-05-07 19:48 | 46.39265 | 13.87149 | 37054 ft | 468 kts | 150° |
| 2026-05-07 19:48 | 46.33985 | 13.92679 | 37051 ft | 469 kts | 150° |
| 2026-05-07 19:49 | 46.28736 | 13.98170 | 37046 ft | 469 kts | 150° |
| 2026-05-07 19:49 | 46.23451 | 14.03693 | 37044 ft | 469 kts | 150° |
| 2026-05-07 19:50 | 46.18287 | 14.09491 | 37037 ft | 474 kts | 141° |
| 2026-05-07 19:50 | 46.13512 | 14.16053 | 37036 ft | 475 kts | 142° |
| 2026-05-07 19:51 | 46.08721 | 14.22608 | 37043 ft | 475 kts | 142° |
| 2026-05-07 19:51 | 46.03921 | 14.29138 | 37040 ft | 474 kts | 142° |
| 2026-05-07 19:52 | 45.99123 | 14.35652 | 37044 ft | 474 kts | 142° |
| 2026-05-07 19:52 | 45.94326 | 14.42152 | 37044 ft | 474 kts | 142° |
| 2026-05-07 19:53 | 45.89526 | 14.48638 | 37051 ft | 474 kts | 142° |
| 2026-05-07 19:53 | 45.84725 | 14.55113 | 37054 ft | 473 kts | 142° |
| 2026-05-07 19:54 | 45.79925 | 14.61572 | 37052 ft | 473 kts | 142° |
| 2026-05-07 19:54 | 45.75125 | 14.68023 | 37051 ft | 473 kts | 142° |
| 2026-05-07 19:55 | 45.70318 | 14.74471 | 37052 ft | 473 kts | 142° |
| 2026-05-07 19:55 | 45.65511 | 14.80905 | 37053 ft | 473 kts | 142° |
| 2026-05-07 19:56 | 45.60727 | 14.87281 | 37045 ft | 473 kts | 143° |
| 2026-05-07 19:56 | 45.55911 | 14.93672 | 37047 ft | 473 kts | 143° |
| 2026-05-07 19:57 | 45.51088 | 15.00065 | 37047 ft | 474 kts | 143° |
| 2026-05-07 19:57 | 45.46260 | 15.06464 | 37056 ft | 474 kts | 143° |
| 2026-05-07 19:58 | 45.41432 | 15.12842 | 37056 ft | 473 kts | 143° |
| 2026-05-07 19:58 | 45.36592 | 15.19209 | 37045 ft | 474 kts | 143° |
| 2026-05-07 19:59 | 45.31743 | 15.25563 | 37041 ft | 474 kts | 143° |
| 2026-05-07 19:59 | 45.26889 | 15.31911 | 37039 ft | 474 kts | 143° |
| 2026-05-07 20:00 | 45.22039 | 15.38257 | 37045 ft | 474 kts | 143° |
| 2026-05-07 20:00 | 45.17217 | 15.44556 | 37044 ft | 474 kts | 143° |
| 2026-05-07 20:01 | 45.12351 | 15.50890 | 37049 ft | 475 kts | 143° |
| 2026-05-07 20:01 | 45.07486 | 15.57198 | 37049 ft | 474 kts | 143° |
| 2026-05-07 20:02 | 45.02617 | 15.63499 | 37047 ft | 474 kts | 143° |
| 2026-05-07 20:02 | 44.97743 | 15.69790 | 37052 ft | 475 kts | 143° |
| 2026-05-07 20:03 | 44.92961 | 15.76258 | 37046 ft | 479 kts | 138° |
| 2026-05-07 20:03 | 44.88485 | 15.83232 | 37052 ft | 480 kts | 138° |
| 2026-05-07 20:04 | 44.84005 | 15.90213 | 37063 ft | 480 kts | 138° |
| 2026-05-07 20:04 | 44.79512 | 15.97178 | 37068 ft | 480 kts | 138° |
| 2026-05-07 20:05 | 44.75012 | 16.04120 | 37065 ft | 480 kts | 138° |
| 2026-05-07 20:05 | 44.70508 | 16.11052 | 37068 ft | 480 kts | 138° |
| 2026-05-07 20:06 | 44.66031 | 16.17933 | 37082 ft | 480 kts | 138° |
| 2026-05-07 20:06 | 44.61519 | 16.24856 | 37080 ft | 479 kts | 138° |
| 2026-05-07 20:07 | 44.59282 | 16.28287 | 36765 ft | 474 kts | 138° |
| 2026-05-07 20:07 | 44.57058 | 16.31693 | 36170 ft | 472 kts | 138° |
| 2026-05-07 20:07 | 44.54837 | 16.35081 | 35520 ft | 472 kts | 139° |
| 2026-05-07 20:07 | 44.52613 | 16.38464 | 34856 ft | 472 kts | 139° |
| 2026-05-07 20:08 | 44.50389 | 16.41848 | 34169 ft | 473 kts | 139° |
| 2026-05-07 20:08 | 44.48156 | 16.45244 | 33382 ft | 474 kts | 139° |
| 2026-05-07 20:08 | 44.45921 | 16.48643 | 32564 ft | 475 kts | 139° |
| 2026-05-07 20:08 | 44.43678 | 16.52050 | 31725 ft | 476 kts | 138° |
| 2026-05-07 20:09 | 44.41448 | 16.55434 | 31092 ft | 473 kts | 138° |
| 2026-05-07 20:09 | 44.39218 | 16.58814 | 30506 ft | 469 kts | 138° |
| 2026-05-07 20:09 | 44.37013 | 16.62144 | 29921 ft | 465 kts | 138° |
| 2026-05-07 20:10 | 44.32661 | 16.68704 | 28743 ft | 455 kts | 138° |
| 2026-05-07 20:10 | 44.30535 | 16.71916 | 27890 ft | 448 kts | 138° |
| 2026-05-07 20:10 | 44.28434 | 16.75091 | 27189 ft | 442 kts | 138° |
| 2026-05-07 20:10 | 44.26358 | 16.78219 | 26502 ft | 436 kts | 138° |
| 2026-05-07 20:11 | 44.24312 | 16.81293 | 25812 ft | 430 kts | 138° |
| 2026-05-07 20:11 | 44.22284 | 16.84329 | 25264 ft | 426 kts | 139° |
| 2026-05-07 20:11 | 44.20277 | 16.87324 | 24775 ft | 421 kts | 139° |
| 2026-05-07 20:11 | 44.18290 | 16.90291 | 24259 ft | 416 kts | 139° |
| 2026-05-07 20:12 | 44.16331 | 16.93217 | 23720 ft | 412 kts | 139° |
| 2026-05-07 20:12 | 44.14386 | 16.96121 | 23159 ft | 407 kts | 138° |
| 2026-05-07 20:12 | 44.12463 | 16.98996 | 22629 ft | 404 kts | 138° |
| 2026-05-07 20:12 | 44.10562 | 17.01836 | 22004 ft | 398 kts | 138° |
| 2026-05-07 20:13 | 44.08683 | 17.04635 | 21339 ft | 394 kts | 138° |
| 2026-05-07 20:13 | 44.06821 | 17.07405 | 20691 ft | 390 kts | 137° |
| 2026-05-07 20:13 | 44.04967 | 17.10155 | 20198 ft | 388 kts | 137° |
| 2026-05-07 20:13 | 44.03128 | 17.12877 | 19746 ft | 385 kts | 137° |
| 2026-05-07 20:14 | 44.01305 | 17.15577 | 19231 ft | 381 kts | 137° |
| 2026-05-07 20:14 | 43.99522 | 17.18213 | 18616 ft | 378 kts | 137° |
| 2026-05-07 20:14 | 43.97730 | 17.20864 | 17954 ft | 375 kts | 137° |
| 2026-05-07 20:14 | 43.95959 | 17.23487 | 17315 ft | 370 kts | 137° |
| 2026-05-07 20:15 | 43.94207 | 17.26083 | 16711 ft | 366 kts | 136° |
| 2026-05-07 20:15 | 43.92475 | 17.28644 | 16107 ft | 362 kts | 136° |
| 2026-05-07 20:15 | 43.90748 | 17.31187 | 15660 ft | 360 kts | 136° |
| 2026-05-07 20:15 | 43.89036 | 17.33705 | 15238 ft | 357 kts | 136° |
| 2026-05-07 20:16 | 43.87341 | 17.36199 | 14820 ft | 354 kts | 136° |
| 2026-05-07 20:16 | 43.86200 | 17.37878 | 14539 ft | 353 kts | 136° |
| 2026-05-07 20:16 | 43.84523 | 17.40347 | 14125 ft | 350 kts | 136° |
| 2026-05-07 20:16 | 43.82862 | 17.42795 | 13705 ft | 348 kts | 136° |
| 2026-05-07 20:17 | 43.81211 | 17.45222 | 13267 ft | 345 kts | 136° |
| 2026-05-07 20:17 | 43.79622 | 17.47548 | 12975 ft | 326 kts | 136° |
| 2026-05-07 20:17 | 43.78111 | 17.49765 | 12658 ft | 311 kts | 136° |
| 2026-05-07 20:17 | 43.76616 | 17.51912 | 12307 ft | 307 kts | 140° |
| 2026-05-07 20:18 | 43.74979 | 17.53750 | 12011 ft | 301 kts | 149° |
| 2026-05-07 20:18 | 43.73186 | 17.55199 | 11692 ft | 296 kts | 158° |
| 2026-05-07 20:18 | 43.71323 | 17.56393 | 11357 ft | 294 kts | 159° |
| 2026-05-07 20:18 | 43.69476 | 17.57588 | 11029 ft | 292 kts | 158° |
| 2026-05-07 20:19 | 43.67639 | 17.58784 | 10705 ft | 290 kts | 158° |
| 2026-05-07 20:19 | 43.65821 | 17.59970 | 10409 ft | 288 kts | 158° |
| 2026-05-07 20:19 | 43.64017 | 17.61145 | 10085 ft | 285 kts | 158° |
| 2026-05-07 20:19 | 43.62224 | 17.62310 | 10006 ft | 285 kts | 159° |
| 2026-05-07 20:20 | 43.60432 | 17.63475 | 10010 ft | 286 kts | 159° |
| 2026-05-07 20:20 | 43.58635 | 17.64642 | 10009 ft | 285 kts | 159° |
| 2026-05-07 20:20 | 43.56789 | 17.65587 | 10003 ft | 281 kts | 169° |
| 2026-05-07 20:20 | 43.54867 | 17.66004 | 10010 ft | 278 kts | 180° |
| 2026-05-07 20:21 | 43.52947 | 17.65896 | 10008 ft | 275 kts | 189° |
| 2026-05-07 20:21 | 43.51044 | 17.65592 | 10005 ft | 275 kts | 189° |
| 2026-05-07 20:21 | 43.49145 | 17.65302 | 9938 ft | 274 kts | 189° |
| 2026-05-07 20:21 | 43.47259 | 17.65020 | 9564 ft | 272 kts | 188° |
| 2026-05-07 20:22 | 43.45381 | 17.64738 | 9204 ft | 271 kts | 188° |
| 2026-05-07 20:22 | 43.43514 | 17.64456 | 8998 ft | 270 kts | 188° |
| 2026-05-07 20:22 | 43.41644 | 17.64171 | 9007 ft | 271 kts | 188° |
| 2026-05-07 20:22 | 43.39770 | 17.63884 | 9003 ft | 271 kts | 188° |
| 2026-05-07 20:23 | 43.37898 | 17.63599 | 9003 ft | 271 kts | 188° |
| 2026-05-07 20:23 | 43.36025 | 17.63314 | 9006 ft | 271 kts | 188° |
| 2026-05-07 20:23 | 43.34153 | 17.63032 | 9004 ft | 271 kts | 188° |
| 2026-05-07 20:23 | 43.32337 | 17.62760 | 9001 ft | 258 kts | 188° |
| 2026-05-07 20:24 | 43.30586 | 17.62602 | 9003 ft | 242 kts | 180° |
| 2026-05-07 20:24 | 43.28926 | 17.62923 | 9011 ft | 242 kts | 169° |
| 2026-05-07 20:24 | 43.27336 | 17.63689 | 9008 ft | 243 kts | 162° |
| 2026-05-07 20:24 | 43.25782 | 17.64524 | 9006 ft | 243 kts | 162° |
| 2026-05-07 20:25 | 43.24186 | 17.65374 | 9004 ft | 243 kts | 163° |
| 2026-05-07 20:25 | 43.22634 | 17.66198 | 8974 ft | 242 kts | 163° |
| 2026-05-07 20:25 | 43.21072 | 17.67026 | 8663 ft | 240 kts | 163° |
| 2026-05-07 20:25 | 43.19522 | 17.67849 | 8324 ft | 239 kts | 162° |
| 2026-05-07 20:26 | 43.17977 | 17.68669 | 7999 ft | 237 kts | 162° |
| 2026-05-07 20:26 | 43.16442 | 17.69484 | 7658 ft | 236 kts | 162° |
| 2026-05-07 20:26 | 43.14910 | 17.70297 | 7317 ft | 236 kts | 162° |
| 2026-05-07 20:26 | 43.13385 | 17.71104 | 6999 ft | 235 kts | 161° |
| 2026-05-07 20:27 | 43.11864 | 17.71890 | 6685 ft | 233 kts | 165° |
| 2026-05-07 20:27 | 43.10291 | 17.72316 | 6366 ft | 230 kts | 177° |
| 2026-05-07 20:27 | 43.08701 | 17.72376 | 6051 ft | 227 kts | 180° |
| 2026-05-07 20:27 | 43.07166 | 17.72418 | 5986 ft | 214 kts | 180° |
| 2026-05-07 20:28 | 43.05707 | 17.72462 | 5990 ft | 208 kts | 180° |
| 2026-05-07 20:28 | 43.04262 | 17.72504 | 5991 ft | 208 kts | 179° |
| 2026-05-07 20:28 | 43.02869 | 17.72950 | 5992 ft | 210 kts | 150° |
| 2026-05-07 20:28 | 43.01915 | 17.74455 | 5991 ft | 217 kts | 114° |
| 2026-05-07 20:29 | 43.01739 | 17.76519 | 5999 ft | 223 kts | 92° |
| 2026-05-07 20:29 | 43.01777 | 17.78637 | 5936 ft | 222 kts | 92° |
| 2026-05-07 20:29 | 43.01819 | 17.80739 | 5712 ft | 220 kts | 91° |
| 2026-05-07 20:29 | 43.01868 | 17.82825 | 5401 ft | 224 kts | 88° |
| 2026-05-07 20:30 | 43.02418 | 17.84862 | 4928 ft | 241 kts | 52° |
| 2026-05-07 20:30 | 43.03844 | 17.86080 | 4447 ft | 250 kts | 12° |
| 2026-05-07 20:30 | 43.05552 | 17.86189 | 4195 ft | 238 kts | 359° |
| 2026-05-07 20:30 | 43.07137 | 17.86138 | 4131 ft | 219 kts | 358° |
| 2026-05-07 20:31 | 43.08605 | 17.86078 | 4063 ft | 205 kts | 358° |
| 2026-05-07 20:31 | 43.10008 | 17.86023 | 4007 ft | 197 kts | 359° |
| 2026-05-07 20:31 | 43.11363 | 17.85970 | 3695 ft | 192 kts | 359° |
| 2026-05-07 20:31 | 43.12654 | 17.85925 | 3423 ft | 177 kts | 359° |
| 2026-05-07 20:32 | 43.13840 | 17.85885 | 3139 ft | 164 kts | 360° |
| 2026-05-07 20:32 | 43.14941 | 17.85849 | 2885 ft | 153 kts | 360° |
| 2026-05-07 20:32 | 43.15990 | 17.85816 | 2663 ft | 148 kts | 0° |
| 2026-05-07 20:32 | 43.17010 | 17.85784 | 2447 ft | 145 kts | 0° |
| 2026-05-07 20:33 | 43.18009 | 17.85753 | 2224 ft | 142 kts | 0° |
| 2026-05-07 20:33 | 43.18976 | 17.85723 | 2012 ft | 140 kts | 360° |
| 2026-05-07 20:33 | 43.19939 | 17.85696 | 1801 ft | 137 kts | 359° |
| 2026-05-07 20:33 | 43.20888 | 17.85669 | 1602 ft | 136 kts | 359° |
| 2026-05-07 20:34 | 43.21831 | 17.85693 | 1398 ft | 135 kts | 6° |
| 2026-05-07 20:34 | 43.22756 | 17.85906 | 1213 ft | 135 kts | 13° |
| 2026-05-07 20:34 | 43.23665 | 17.86217 | 975 ft | 135 kts | 12° |
| 2026-05-07 20:34 | 43.24598 | 17.86295 | 797 ft | 135 kts | 356° |
| 2026-05-07 20:35 | 43.25524 | 17.86056 | 586 ft | 136 kts | 345° |
| 2026-05-07 20:35 | 43.26412 | 17.85630 | 364 ft | 135 kts | 339° |
| 2026-05-07 20:35 | 43.27279 | 17.85142 | 216 ft | 134 kts | 339° |
| 2026-05-07 20:35 | 43.28102 | 17.84685 | 172 ft | 113 kts | 339° |
| 2026-05-07 20:36 | 43.28675 | 17.84374 | 175 ft | 72 kts | 338° |
| 2026-05-07 20:36 | 43.29006 | 17.84190 | 180 ft | 44 kts | 338° |
| 2026-05-07 20:36 | 43.29234 | 17.84056 | 182 ft | 15 kts | 336° |
| 2026-05-07 20:36 | 43.29269 | 17.83956 | 181 ft | 13 kts | 252° |
| 2026-05-07 20:37 | 43.29234 | 17.83844 | 181 ft | 12 kts | 247° |
| 2026-05-07 20:37 | 43.29197 | 17.83760 | 179 ft | 11 kts | 193° |
| 2026-05-07 20:37 | 43.29141 | 17.83786 | 179 ft | 7 kts | 157° |
| 2026-05-07 20:37 | 43.29099 | 17.83808 | 179 ft | 6 kts | 164° |
| 2026-05-07 20:38 | 43.29067 | 17.83789 | 179 ft | 5 kts | 234° |
| 2026-05-07 20:38 | 43.29046 | 17.83762 | 179 ft | 4 kts | 200° |
| 2026-05-07 20:38 | 43.29024 | 17.83769 | 179 ft | 3 kts | 159° |
| 2026-05-07 20:38 | 43.28991 | 17.83786 | 179 ft | 6 kts | 168° |
| 2026-05-07 20:39 | 43.28966 | 17.83755 | 179 ft | 5 kts | 247° |
| 2026-05-07 20:39 | 43.28973 | 17.83742 | 179 ft | 1 kts | 346° |
| 2026-05-07 20:39 | 43.28981 | 17.83747 | 179 ft | 0 kts | 14° |